Time;durP1;ratioP1;P1;durP2;ratioP2;P2;SDS_P1;SDS_P2;PMS_P1;PMS_P2;Temp;Humidity;BMP_temperature;BMP_pressure;BME280_temperature;BME280_humidity;BME280_pressure;Samples;Min_cycle;Max_cycle;Signal;HPM_P1;HPM_P2
2023/11/10 00:02:12;;;;;;;9.68;6.35;;;;;;;8.80;68.41;99292.25;6173424;23;20047;-89
2023/11/10 00:05:42;;;;;;;14.50;6.72;;;;;;;9.09;68.70;99342.97;6200381;23;20008;-89
2023/11/10 00:08:33;;;;;;;17.90;7.95;;;;;;;9.14;68.50;99346.44;6197622;23;20013;-91
2023/11/10 00:11:07;;;;;;;20.10;7.30;;;;;;;8.59;68.59;99264.59;6147837;23;20013;-93
2023/11/10 00:13:59;;;;;;;14.60;7.82;;;;;;;9.17;68.96;99351.28;6173957;23;20072;-91
2023/11/10 00:16:44;;;;;;;18.05;8.20;;;;;;;9.00;68.79;99304.69;6138226;23;20013;-92
2023/11/10 00:20:12;;;;;;;17.17;7.93;;;;;;;9.36;68.27;99347.63;6065086;23;20018;-90
2023/11/10 00:23:43;;;;;;;16.17;8.38;;;;;;;9.10;69.48;99353.56;6137749;23;20088;-88
2023/11/10 00:26:36;;;;;;;14.30;8.48;;;;;;;9.02;69.90;99357.00;6140911;23;20050;-91
2023/11/10 00:29:09;;;;;;;16.08;9.50;;;;;;;8.80;70.59;99343.25;6142823;23;20045;-89
2023/11/10 00:32:01;;;;;;;13.43;8.40;;;;;;;8.94;70.65;99361.25;6258224;22;20024;-89
2023/11/10 00:35:51;;;;;;;18.55;8.95;;;;;;;9.04;70.46;99362.97;6250828;22;20121;-89
2023/11/10 00:38:17;;;;;;;21.20;9.57;;;;;;;8.94;70.26;99352.28;6321701;22;20110;-92
2023/11/10 00:40:52;;;;;;;16.98;8.57;;;;;;;9.05;70.13;99336.53;6242374;22;20019;-89
2023/11/10 00:43:36;;;;;;;16.65;9.43;;;;;;;9.10;69.63;99337.22;6321532;22;20023;-89
2023/11/10 00:46:03;;;;;;;14.50;8.82;;;;;;;9.10;69.28;99326.31;6296267;22;20038;-90
2023/11/10 00:48:58;;;;;;;15.00;8.93;;;;;;;9.39;69.23;99363.38;6268168;22;20018;-89
2023/11/10 00:51:25;;;;;;;15.82;8.88;;;;;;;9.21;69.32;99337.03;6241929;23;20059;-89
2023/11/10 00:54:20;;;;;;;16.35;9.30;;;;;;;9.15;69.36;99331.66;6212314;23;20498;-92
2023/11/10 00:56:46;;;;;;;16.00;9.15;;;;;;;9.27;69.28;99336.63;6234322;23;20016;-90
2023/11/10 00:59:22;;;;;;;21.65;9.35;;;;;;;9.42;69.44;99365.50;6205724;23;20022;-88
2023/11/10 01:02:39;;;;;;;21.67;10.25;;;;;;;9.31;69.41;99373.09;6181074;23;20027;-89
2023/11/10 01:05:11;;;;;;;18.25;9.63;;;;;;;8.94;70.35;99344.09;6221108;23;20580;-89
2023/11/10 01:07:37;;;;;;;17.60;9.90;;;;;;;8.91;70.21;99322.88;6206983;23;20062;-90
2023/11/10 01:10:29;;;;;;;16.70;9.73;;;;;;;9.27;69.76;99366.63;6206445;23;20024;-89
2023/11/10 01:13:28;;;;;;;21.08;10.77;;;;;;;8.87;70.17;99330.84;6169504;22;20275;-92
2023/11/10 01:15:54;;;;;;;22.17;11.07;;;;;;;8.77;70.63;99325.56;6214049;22;20472;-91
2023/11/10 01:18:29;;;;;;;27.60;11.40;;;;;;;8.68;70.98;99325.47;6235620;22;20436;-92
2023/11/10 01:20:57;;;;;;;27.35;12.52;;;;;;;9.05;71.23;99391.06;6262801;22;20110;-90
2023/11/10 01:23:39;;;;;;;25.33;12.07;;;;;;;8.57;71.40;99315.84;6237083;22;20020;-91
2023/11/10 01:26:31;;;;;;;27.13;12.98;;;;;;;9.12;71.22;99392.25;6231599;22;20035;-88
2023/11/10 01:29:02;;;;;;;29.92;12.43;;;;;;;8.76;71.00;99345.75;6244217;22;20030;-89
2023/11/10 01:35:59;;;;;;;26.40;12.23;;;;;;;9.17;71.16;99399.53;6240126;22;20073;-92
2023/11/10 01:40:08;;;;;;;23.63;11.77;;;;;;;9.24;71.30;99394.50;6276986;22;20023;-88
2023/11/10 01:42:34;;;;;;;24.88;11.32;;;;;;;9.28;71.11;99389.25;6265940;22;20063;-89
2023/11/10 01:45:01;;;;;;;24.97;11.73;;;;;;;9.31;70.50;99384.00;6239910;22;20020;-90
2023/11/10 01:47:54;;;;;;;23.25;11.43;;;;;;;9.23;71.58;99397.53;6239236;22;20016;-90
2023/11/10 01:50:24;;;;;;;36.78;11.65;;;;;;;9.22;71.77;99395.91;6245357;22;20046;-90
2023/11/10 01:53:41;;;;;;;21.42;10.88;;;;;;;9.23;72.37;99403.78;6171388;23;20020;-89
2023/11/10 01:57:13;;;;;;;22.27;10.30;;;;;;;9.15;73.13;99405.31;6215116;22;20032;-91
2023/11/10 02:00:06;;;;;;;19.23;9.63;;;;;;;9.08;73.09;99407.63;6263451;22;20047;-91
2023/11/10 02:03:28;;;;;;;24.35;10.82;;;;;;;9.01;73.88;99407.22;6275293;22;20018;-92
2023/11/10 02:05:55;;;;;;;22.38;9.77;;;;;;;8.78;74.13;99376.25;6265801;22;20019;-91
2023/11/10 02:08:21;;;;;;;19.15;10.45;;;;;;;8.61;74.42;99356.91;6265342;22;20449;-91
2023/11/10 02:10:56;;;;;;;19.95;9.93;;;;;;;8.44;74.25;99316.63;6263948;22;20023;-89
2023/11/10 02:13:22;;;;;;;22.25;10.95;;;;;;;8.99;73.89;99381.34;6246717;22;20016;-89
2023/11/10 02:18:46;;;;;;;20.23;9.88;;;;;;;9.28;73.52;99422.81;6317892;22;20027;-91
2023/11/10 02:21:36;;;;;;;18.67;9.77;;;;;;;9.09;73.13;99373.78;6240962;22;20053;-91
2023/11/10 02:24:12;;;;;;;18.40;9.32;;;;;;;9.02;72.69;99367.13;6296289;22;20022;-89
2023/11/10 02:27:04;;;;;;;22.83;10.80;;;;;;;9.47;72.51;99419.16;6242771;22;20016;-89
2023/11/10 02:29:41;;;;;;;15.82;8.98;;;;;;;9.18;72.47;99387.53;6242702;22;20004;-89
2023/11/10 02:32:36;;;;;;;22.05;10.43;;;;;;;9.45;72.51;99441.31;6226516;22;20028;-89
2023/11/10 02:41:19;;;;;;;17.15;9.02;;;;;;;9.45;71.92;99429.59;6248010;22;20075;-88
2023/11/10 02:51:44;;;;;;;17.73;9.45;;;;;;;9.09;72.25;99394.78;6207680;23;20084;-88
2023/11/10 02:54:24;;;;;;;20.20;8.75;;;;;;;9.48;71.69;99448.88;6181913;23;20027;-89
2023/11/10 02:57:04;;;;;;;17.85;8.40;;;;;;;9.38;72.14;99449.09;6206850;23;20494;-89
2023/11/10 03:03:30;;;;;;;15.27;8.57;;;;;;;9.49;71.46;99450.50;6150159;23;20473;-88
2023/11/10 03:05:56;;;;;;;19.88;8.73;;;;;;;9.13;71.34;99402.06;6172916;23;20017;-89
2023/11/10 03:08:38;;;;;;;16.77;8.45;;;;;;;9.18;71.32;99414.81;6155580;22;20474;-89
2023/11/10 03:14:42;;;;;;;19.05;8.45;;;;;;;9.02;71.11;99391.66;6180123;23;20001;-90
2023/11/10 03:17:41;;;;;;;20.27;7.90;;;;;;;9.50;70.93;99452.09;6154167;23;20040;-93
2023/11/10 03:20:12;;;;;;;13.63;8.13;;;;;;;9.29;70.95;99429.88;6155611;23;20006;-93
2023/11/10 03:22:57;;;;;;;16.60;8.18;;;;;;;9.33;70.69;99425.41;6132290;23;20021;-90
2023/11/10 03:29:06;;;;;;;13.80;7.38;;;;;;;9.65;70.02;99470.13;6305937;22;20027;-92
2023/11/10 03:31:39;;;;;;;12.13;6.97;;;;;;;9.26;69.98;99424.19;6273199;22;20023;-92
2023/11/10 03:40:15;;;;;;;16.15;7.65;;;;;;;9.29;70.49;99457.13;6291363;22;20711;-88
2023/11/10 03:43:39;;;;;;;15.77;7.07;;;;;;;9.42;70.10;99477.38;6218945;22;20012;-88
2023/11/10 03:47:10;;;;;;;16.50;6.85;;;;;;;9.49;69.79;99479.72;6266280;22;20019;-86
2023/11/10 03:49:42;;;;;;;15.98;6.72;;;;;;;9.21;70.14;99467.97;6244242;22;20023;-90
2023/11/10 03:53:14;;;;;;;12.60;6.78;;;;;;;9.36;70.03;99479.38;6257790;22;20027;-88
2023/11/10 03:56:47;;;;;;;11.88;6.72;;;;;;;9.30;70.06;99490.69;6248254;22;20004;-90
2023/11/10 03:59:39;;;;;;;8.95;6.00;;;;;;;8.98;70.44;99469.72;6302746;22;20073;-87
2023/11/10 04:07:54;;;;;;;12.95;5.93;;;;;;;8.78;70.16;99470.84;6296231;22;20027;-89
2023/11/10 04:11:14;;;;;;;11.73;6.32;;;;;;;8.98;70.54;99505.97;6249187;22;20053;-90
2023/11/10 04:16:36;;;;;;;9.52;5.90;;;;;;;8.74;70.77;99518.88;6297287;22;20023;-88
2023/11/10 04:41:10;;;;;;;9.95;6.05;;;;;;;8.76;71.39;99533.03;6211686;22;20087;31
2023/11/10 04:54:06;;;;;;;11.63;6.28;;;;;;;8.82;70.95;99554.47;6332071;22;20030;-91
2023/11/10 04:57:44;;;;;;;12.43;5.55;;;;;;;8.28;70.83;99482.19;6300366;22;20035;-90
2023/11/10 05:03:59;;;;;;;13.73;5.03;;;;;;;8.39;71.17;99531.91;6212547;23;20036;-90
2023/11/10 14:07:34;;;;;;;27.67;11.00;;;;;;;8.60;70.54;99789.38;6274668;22;20007;-91
2023/11/10 14:10:29;;;;;;;23.20;10.02;;;;;;;8.45;70.78;99751.41;6284910;22;20023;-89
2023/11/10 14:13:23;;;;;;;20.15;9.88;;;;;;;8.52;70.25;99745.63;6313762;22;20010;-89
2023/11/10 14:16:20;;;;;;;21.00;8.23;;;;;;;8.44;70.04;99747.03;6311164;22;20172;-88
2023/11/10 14:19:17;;;;;;;14.70;8.68;;;;;;;8.91;70.49;99828.06;6289143;22;20018;-91
2023/11/10 14:44:48;;;;;;;21.52;11.30;;;;;;;8.31;71.05;99761.31;6316830;22;20464;-89
2023/11/10 16:21:09;;;;;;;44.20;16.45;;;;;;;8.53;72.71;99846.16;6309739;22;20063;-90
2023/11/10 16:30:54;;;;;;;37.65;13.32;;;;;;;8.53;72.59;99845.34;6306035;22;20022;-88
2023/11/10 16:34:30;;;;;;;38.88;13.20;;;;;;;8.06;73.19;99809.47;6209316;23;20039;-88
2023/11/10 16:37:53;;;;;;;24.42;12.40;;;;;;;8.24;73.63;99851.53;6127039;23;20014;-88
2023/11/10 16:41:09;;;;;;;26.05;13.05;;;;;;;8.26;74.00;99843.91;6151069;23;20040;-87
2023/11/10 16:44:07;;;;;;;29.73;13.05;;;;;;;8.26;73.79;99845.81;6094387;23;20025;-88
2023/11/10 16:46:37;;;;;;;29.27;11.95;;;;;;;7.97;73.84;99811.97;6150488;23;20022;-87
2023/11/10 16:49:25;;;;;;;24.83;12.02;;;;;;;8.08;73.93;99817.34;6151817;23;20029;-87
2023/11/10 16:52:59;;;;;;;24.75;12.02;;;;;;;7.84;73.58;99768.25;6145580;23;20111;-89
2023/11/10 16:55:38;;;;;;;24.63;11.43;;;;;;;8.19;74.02;99844.22;6157174;23;20183;-87
2023/11/10 16:58:06;;;;;;;27.48;11.50;;;;;;;7.67;74.36;99772.16;6123322;23;20033;-86
2023/11/10 17:00:39;;;;;;;20.50;11.40;;;;;;;7.74;74.53;99788.19;6124048;23;20013;-86
2023/11/10 17:03:12;;;;;;;21.90;11.03;;;;;;;7.98;74.11;99818.25;6124770;23;20021;-86
2023/11/10 17:05:49;;;;;;;19.85;10.52;;;;;;;7.80;74.13;99797.13;6076548;23;20044;-88
2023/11/10 17:32:49;;;;;;;33.67;12.18;;;;;;;7.80;75.31;99840.69;6243284;22;20034;31
2023/11/10 18:41:59;;;;;;;19.45;9.10;;;;;;;7.21;75.38;99842.31;6270300;23;20051;-91
2023/11/10 18:44:49;;;;;;;30.80;9.88;;;;;;;7.16;75.46;99842.34;6212964;23;20023;-88
2023/11/10 18:47:30;;;;;;;26.13;9.70;;;;;;;6.55;75.61;99756.38;6217094;23;20046;-89
2023/11/10 18:51:01;;;;;;;31.88;10.30;;;;;;;7.13;75.46;99841.00;6189936;23;20019;-89
2023/11/10 18:56:24;;;;;;;25.15;9.40;;;;;;;6.66;75.41;99777.00;6287025;22;20028;-89
2023/11/10 18:58:54;;;;;;;19.77;8.93;;;;;;;7.07;75.56;99853.78;6223592;22;20039;-89
2023/11/10 19:01:25;;;;;;;22.45;10.25;;;;;;;6.60;75.51;99794.41;6244786;22;20066;-88
2023/11/10 19:04:32;;;;;;;23.13;9.27;;;;;;;6.72;75.40;99799.50;6295155;22;20012;-90
2023/11/10 19:07:43;;;;;;;17.98;8.88;;;;;;;6.78;75.41;99822.88;6298455;22;20065;-87
2023/11/10 19:21:23;;;;;;;19.90;8.52;;;;;;;6.24;75.67;99756.44;6268389;22;20028;-88
2023/11/10 19:24:15;;;;;;;21.40;9.60;;;;;;;6.48;75.71;99791.16;6167004;23;20075;-89
2023/11/10 19:26:52;;;;;;;20.70;8.90;;;;;;;6.88;75.74;99851.94;6220793;23;20000;-90
2023/11/10 19:36:29;;;;;;;24.75;6.97;;;;;;;6.81;75.69;99842.16;6301920;22;20019;-87
2023/11/10 19:38:59;;;;;;;17.10;7.57;;;;;;;6.68;75.59;99823.72;6273583;22;20029;-87
2023/11/10 19:41:53;;;;;;;12.30;7.13;;;;;;;6.81;75.39;99841.34;6329064;22;20048;-89
2023/11/10 19:45:03;;;;;;;24.13;9.68;;;;;;;6.47;75.08;99789.53;6281372;22;20019;-90
2023/11/10 19:48:37;;;;;;;31.30;7.90;;;;;;;6.77;75.27;99843.00;6308592;22;20030;-89
2023/11/10 19:51:58;;;;;;;20.77;8.38;;;;;;;6.72;75.92;99843.81;6305684;22;20019;-90
2023/11/10 19:55:49;;;;;;;21.27;8.77;;;;;;;6.74;75.81;99838.09;6330015;22;20070;-89
2023/11/10 19:59:22;;;;;;;25.85;8.65;;;;;;;6.72;75.72;99845.69;6279218;22;20026;-89
2023/11/10 20:14:03;;;;;;;21.55;9.25;;;;;;;6.60;75.95;99824.28;6307756;22;20071;-91
2023/11/10 20:16:39;;;;;;;18.83;9.37;;;;;;;6.59;75.94;99831.63;6282355;22;20019;-86
2023/11/10 20:19:48;;;;;;;18.35;8.68;;;;;;;6.16;75.67;99773.28;6285562;22;20233;-86
2023/11/10 20:22:16;;;;;;;22.58;8.70;;;;;;;6.34;75.88;99796.31;6282647;22;20086;-91
2023/11/10 20:25:09;;;;;;;18.92;9.70;;;;;;;6.23;75.81;99783.88;6334746;22;20011;-87
2023/11/10 20:28:35;;;;;;;16.83;9.20;;;;;;;6.48;76.35;99840.84;6279448;22;20078;-91
2023/11/10 20:31:03;;;;;;;16.33;8.30;;;;;;;6.16;75.69;99796.88;6281036;22;20019;-92
2023/11/10 20:34:03;;;;;;;17.80;9.30;;;;;;;6.27;76.08;99812.91;6308830;22;20026;-91
2023/11/10 20:36:47;;;;;;;15.63;8.73;;;;;;;6.18;76.17;99803.66;6278033;22;20015;-90
2023/11/10 20:40:15;;;;;;;15.85;8.55;;;;;;;6.26;76.41;99818.63;6288190;22;20049;-90
2023/11/10 20:42:42;;;;;;;20.30;9.85;;;;;;;6.11;76.46;99806.66;6252576;22;20015;-88
2023/11/10 20:46:19;;;;;;;21.65;9.23;;;;;;;6.34;76.43;99843.31;6328575;22;20015;-88
2023/11/10 20:49:12;;;;;;;22.60;9.95;;;;;;;6.34;76.54;99831.63;6291053;22;20026;-85
2023/11/10 20:51:39;;;;;;;23.45;9.63;;;;;;;6.19;76.56;99812.63;6273490;22;20022;-86
2023/11/10 20:54:13;;;;;;;16.67;8.80;;;;;;;6.28;76.53;99835.44;6301425;22;20023;-86
2023/11/10 20:56:59;;;;;;;19.67;9.50;;;;;;;5.72;76.77;99748.53;6300004;22;20037;-91
2023/11/10 20:59:35;;;;;;;16.55;8.57;;;;;;;6.35;76.58;99825.09;6276433;22;20015;-86
2023/11/10 21:02:03;;;;;;;14.93;7.45;;;;;;;5.97;76.03;99769.47;6300411;22;20027;-88
2023/11/10 21:05:11;;;;;;;17.20;8.68;;;;;;;6.31;76.40;99826.75;6251269;22;20026;-86
2023/11/10 21:08:09;;;;;;;22.33;8.80;;;;;;;5.87;76.31;99735.78;6222380;22;20073;-88
2023/11/10 21:11:10;;;;;;;22.88;9.05;;;;;;;6.03;76.21;99784.69;6199518;23;20088;-89
2023/11/10 21:13:36;;;;;;;21.20;8.52;;;;;;;5.98;76.07;99781.94;6165728;23;20105;-92
2023/11/10 21:16:05;;;;;;;17.17;8.25;;;;;;;5.88;76.00;99761.84;6177472;23;20020;-87
2023/11/10 21:18:33;;;;;;;18.77;9.15;;;;;;;6.18;76.09;99809.09;6176937;23;20021;-87
2023/11/10 21:21:04;;;;;;;14.13;7.57;;;;;;;6.22;76.08;99822.94;6204394;23;20104;-90
2023/11/10 21:23:32;;;;;;;17.63;8.63;;;;;;;5.97;76.07;99773.00;6152692;23;20031;-86
2023/11/10 21:26:04;;;;;;;15.88;8.43;;;;;;;6.29;75.81;99832.47;6202853;23;20057;-88
2023/11/10 21:28:40;;;;;;;15.90;8.85;;;;;;;6.08;76.18;99801.75;6177712;23;20016;-86
2023/11/10 21:31:35;;;;;;;14.52;8.25;;;;;;;6.04;76.17;99792.53;6185537;23;20051;-88
2023/11/10 21:34:03;;;;;;;14.02;8.35;;;;;;;6.11;75.68;99798.50;6177190;23;20493;-87
2023/11/10 21:36:31;;;;;;;19.00;8.82;;;;;;;5.95;75.75;99783.31;6152512;23;20020;-88
2023/11/10 21:39:14;;;;;;;20.15;8.90;;;;;;;5.87;75.88;99779.22;6174289;23;20021;-90
2023/11/10 21:41:40;;;;;;;21.05;8.20;;;;;;;6.00;75.63;99787.94;6155069;23;20025;-91
2023/11/10 21:44:12;;;;;;;22.83;8.80;;;;;;;5.81;75.71;99764.00;6174338;23;20017;-87
2023/11/10 21:46:44;;;;;;;18.60;9.23;;;;;;;5.94;76.04;99778.97;6198946;22;20041;-89
2023/11/10 21:49:22;;;;;;;19.58;8.90;;;;;;;6.22;75.67;99815.59;6324255;22;20026;-90
2023/11/10 21:52:51;;;;;;;17.58;8.35;;;;;;;6.29;75.64;99824.31;6260602;23;20084;-87
2023/11/10 21:55:18;;;;;;;15.73;8.43;;;;;;;5.83;75.39;99750.19;6184304;23;20116;-89
2023/11/10 21:57:45;;;;;;;21.17;8.63;;;;;;;6.17;75.28;99814.81;6212020;23;20024;-89
2023/11/10 22:01:15;;;;;;;14.05;8.18;;;;;;;6.31;75.45;99826.75;6209689;23;20024;-92
2023/11/10 22:04:07;;;;;;;16.88;8.98;;;;;;;6.19;75.43;99827.03;6236325;23;20033;-91
2023/11/10 22:06:37;;;;;;;18.40;8.73;;;;;;;6.15;75.89;99831.34;6262871;23;20016;-91
2023/11/10 22:09:05;;;;;;;18.90;7.82;;;;;;;5.77;76.06;99773.78;6214335;23;20036;-89
2023/11/10 22:11:59;;;;;;;18.50;8.70;;;;;;;5.49;76.13;99728.97;6219631;23;20016;-86
2023/11/10 22:14:28;;;;;;;14.65;7.80;;;;;;;5.80;76.31;99797.66;6234779;23;20031;-86
2023/11/10 22:17:22;;;;;;;17.40;8.20;;;;;;;5.96;76.65;99820.22;6237688;23;20450;-89
2023/11/10 22:19:50;;;;;;;13.43;8.20;;;;;;;5.76;76.47;99780.28;6208088;23;20015;-92
2023/11/10 22:22:44;;;;;;;15.15;7.88;;;;;;;5.78;76.65;99791.66;6243872;23;20030;-86
2023/11/10 22:25:11;;;;;;;16.92;8.65;;;;;;;5.88;76.57;99799.81;6211445;23;20551;-86
2023/11/10 22:27:39;;;;;;;17.88;8.55;;;;;;;5.92;76.01;99797.38;6264308;23;20543;-89
2023/11/10 22:30:07;;;;;;;13.38;7.78;;;;;;;5.70;76.70;99773.22;6258563;22;20026;-84
2023/11/10 22:32:38;;;;;;;14.35;8.40;;;;;;;6.02;76.52;99802.03;6269342;22;20416;-91
2023/11/10 22:35:12;;;;;;;23.45;10.10;;;;;;;6.11;76.09;99812.06;6270323;22;20022;-84
2023/11/10 22:37:44;;;;;;;19.17;9.10;;;;;;;6.01;75.87;99800.41;6296450;22;20015;-86
2023/11/10 22:40:17;;;;;;;15.93;8.57;;;;;;;5.85;75.52;99751.53;6298249;22;20015;-86
2023/11/10 22:42:46;;;;;;;19.40;10.25;;;;;;;6.11;75.26;99781.41;6324082;22;20041;-85
2023/11/10 22:45:39;;;;;;;20.15;8.98;;;;;;;6.13;75.26;99795.53;6302196;22;20085;-86
2023/11/10 22:48:05;;;;;;;16.33;8.82;;;;;;;6.01;75.46;99784.94;6244506;22;20015;-86
2023/11/10 22:50:39;;;;;;;22.35;10.05;;;;;;;5.83;75.51;99756.41;6323389;22;20029;-94
2023/11/10 22:53:08;;;;;;;16.95;9.38;;;;;;;5.90;75.22;99750.72;6294665;22;20035;-87
2023/11/10 22:55:34;;;;;;;22.40;8.80;;;;;;;5.57;75.51;99720.31;6271308;22;20019;-85
2023/11/10 22:58:02;;;;;;;17.15;9.10;;;;;;;5.75;75.67;99735.25;6327237;22;20100;-93
2023/11/10 23:00:32;;;;;;;16.30;8.93;;;;;;;5.80;75.61;99767.81;6304581;22;20015;-90
2023/11/10 23:03:06;;;;;;;14.23;8.73;;;;;;;5.94;75.79;99791.72;6303211;22;20049;-88
2023/11/10 23:05:35;;;;;;;19.30;9.23;;;;;;;5.57;76.14;99735.78;6302904;22;20019;-87
2023/11/10 23:08:48;;;;;;;16.80;8.25;;;;;;;5.66;76.08;99747.69;6311199;22;20019;-90
2023/11/10 23:11:16;;;;;;;15.75;8.65;;;;;;;5.49;76.17;99712.69;6251970;22;20053;-89
2023/11/10 23:13:42;;;;;;;13.90;8.70;;;;;;;5.78;76.21;99769.16;6302400;22;20449;-88
2023/11/10 23:19:15;;;;;;;13.32;8.32;;;;;;;5.75;76.02;99758.84;6280108;22;20075;-90
2023/11/10 23:21:42;;;;;;;12.98;8.25;;;;;;;5.70;75.79;99759.66;6329846;22;20546;-91
2023/11/10 23:24:09;;;;;;;17.20;8.90;;;;;;;6.00;75.72;99790.66;6328471;22;20015;-86
2023/11/10 23:26:35;;;;;;;17.38;8.85;;;;;;;5.67;75.89;99741.22;6294001;22;20042;-91
2023/11/10 23:29:11;;;;;;;17.60;8.82;;;;;;;5.77;75.99;99746.66;6300538;22;20023;-93
2023/11/10 23:32:28;;;;;;;15.18;8.82;;;;;;;6.05;76.04;99768.91;6299646;22;20011;-90
2023/11/10 23:35:46;;;;;;;17.27;8.70;;;;;;;5.52;75.38;99684.25;6312573;22;20045;-91
2023/11/10 23:38:18;;;;;;;17.52;9.15;;;;;;;6.01;75.52;99763.22;6274916;22;20019;-92
2023/11/10 23:40:45;;;;;;;16.42;8.98;;;;;;;5.69;75.58;99724.66;6275667;22;20015;-88
2023/11/10 23:43:32;;;;;;;;;;;;;;;6.14;75.66;99772.72;6327878;22;20042;-87
2023/11/10 23:45:58;;;;;;;14.93;8.98;;;;;;;5.91;75.15;99738.78;6274353;22;19937;-88
2023/11/10 23:48:24;;;;;;;22.00;9.48;;;;;;;5.83;75.24;99717.63;6249560;22;20038;-89
2023/11/10 23:51:48;;;;;;;18.40;10.02;;;;;;;6.25;74.79;99773.53;6301002;22;20030;-87
2023/11/10 23:54:16;;;;;;;15.75;9.20;;;;;;;6.01;74.89;99754.28;6303450;22;20011;-87
2023/11/10 23:56:52;;;;;;;19.52;9.15;;;;;;;5.79;75.20;99722.75;6300949;22;20019;-85
